GEML

Melilla Airport

Melilla, Spain
TAF GEML 182000Z 1821/1921 25008KT 9999 FEW045 TX19/1913Z TN15/1906Z PROB40 TEMPO 1912/1918 28015G25KT
Issued Valid From Valid To
Nov-18 @ 20:00 UTC
(6 hours ago)
Nov-18 @ 21:00 UTC
(5 hours ago)
Nov-19 @ 21:00 UTC
(in 19 hours)
Nov-18 @ 21:00 to Nov-19 @ 21:00
TAF GEML 182000Z 1821/1921 25008KT 9999 FEW045 TX19/1913Z TN15/1906Z
Wind Visibility Clouds
250° at 8 knots 10,000+ meters
  • Few at 4,500' AGL
Temporary  (Probability 40%) Nov-19 @ 12:00 to Nov-19 @ 18:00
PROB40 TEMPO 1912/1918 28015G25KT
Wind
280° at 15 knots
 Gusting to 25 knots
TAF GEML 182000Z 1821/1921 25008KT 9999 FEW045 TX19/1913Z TN15/1906Z PROB40 TEMPO 1912/1918 28015G25KT
Issued Nov-18 @ 20:00 UTC
(6 hours ago)
Valid From Nov-18 @ 21:00 UTC
(5 hours ago)
Valid To Nov-19 @ 21:00 UTC
(in 19 hours)
Nov-18 @ 21:00 - Nov-19 @ 21:00
Wind Visibility
250° at 8 knots 10,000+ meters
Clouds
  • Few at 4,500' AGL
Probability 40% Temporary Nov-19 @ 12:00 - Nov-19 @ 18:00
Wind
280° at 15 knots
 Gusting to 25 knots